KOSU/OSU METAR and TAF weather

Enter ICAO airport designator
Station Type Date Time Source
KOSU METAR 2021/06/24 05:53 UTC NOAA

KOSU 240553Z AUTO 13005KT 10SM CLR 19/10 A3018 RMK AO2 SLP215 T01890100 10233 20183 57001


Station Type Date Time Source
KOSU Decoded METAR 2021/06/24 05:53 UTC NOAA

OHIO STATE UNIVERSITY AIRPORT , OH, United States (KOSU) 40-05N 083-05W 280M
Jun 24, 2021 - 01:53 AM EDT / 2021.06.24 0553 UTC
Wind: from the SE (130 degrees) at 6 MPH (5 KT):0
Visibility: 10 mile(s):0
Sky conditions: clear
Temperature: 66.0 F (18.9 C)
Dew Point: 50.0 F (10.0 C)
Relative Humidity: 56%
Pressure (altimeter): 30.18 in. Hg (1022 hPa)
Pressure tendency: 0.00 inches (0.1 hPa) lower than three hours ago
ob: KOSU 240553Z AUTO 13005KT 10SM CLR 19/10 A3018 RMK AO2 SLP215 T01890100 10233 20183 57001
cycle: 6

Station Type Date Time Source
KOSU TAF UTC NOAA

Error!

Example: see airport list